Time;durP1;ratioP1;P1;durP2;ratioP2;P2;SDS_P1;SDS_P2;PMS_P1;PMS_P2;Temp;Humidity;BMP_temperature;BMP_pressure;BME280_temperature;BME280_humidity;BME280_pressure;Samples;Min_cycle;Max_cycle;Signal;HPM_P1;HPM_P2
2023/04/18 00:02:09;;;;;;;10.70;3.90;;;;;;;14.43;57.41;101493.38;107180;1267;24265;-55
2023/04/18 00:04:38;;;;;;;7.40;3.60;;;;;;;14.42;57.45;101488.33;106962;1269;25415;-55
2023/04/18 00:07:07;;;;;;;6.30;3.80;;;;;;;14.41;57.50;101479.09;106860;1259;25446;-55
2023/04/18 00:09:35;;;;;;;4.80;3.50;;;;;;;14.40;57.60;101478.09;107065;1271;25291;-55
2023/04/18 00:12:04;;;;;;;6.70;4.00;;;;;;;14.38;57.67;101477.42;107029;1272;25321;-55
2023/04/18 00:14:34;;;;;;;7.70;3.70;;;;;;;14.37;57.64;101480.60;107064;1269;22527;-55
2023/04/18 00:17:07;;;;;;;6.30;3.60;;;;;;;14.34;57.63;101481.70;106874;1267;24221;-55
2023/04/18 00:19:42;;;;;;;5.60;4.00;;;;;;;14.34;57.78;101488.16;107107;1267;25250;-55
2023/04/18 00:22:11;;;;;;;4.70;3.40;;;;;;;14.35;57.95;101490.42;107034;1267;24787;-55
2023/04/18 00:24:40;;;;;;;6.20;3.10;;;;;;;14.35;58.11;101491.81;107027;1272;25674;-54
2023/04/18 00:27:08;;;;;;;7.40;3.80;;;;;;;14.37;58.26;101492.99;107045;1270;25349;-55
2023/04/18 00:29:37;;;;;;;4.00;3.20;;;;;;;14.38;58.36;101495.43;107145;1267;25331;-55
2023/04/18 00:32:05;;;;;;;8.70;3.60;;;;;;;14.34;58.55;101493.42;106827;1270;25362;-55
2023/04/18 00:34:34;;;;;;;5.00;3.20;;;;;;;14.38;58.48;101494.71;106969;1267;22541;-55
2023/04/18 00:37:02;;;;;;;4.70;2.70;;;;;;;14.38;58.44;101485.29;107062;1273;25340;-55
2023/04/18 00:39:31;;;;;;;4.60;3.20;;;;;;;14.38;58.33;101478.47;107107;1271;25373;-54
2023/04/18 00:42:00;;;;;;;4.70;3.50;;;;;;;14.35;58.26;101482.39;105556;1267;1003225;-55
2023/04/18 00:44:31;;;;;;;7.20;4.00;;;;;;;14.32;58.19;101476.20;106868;1270;24428;-55
2023/04/18 00:47:00;;;;;;;5.60;3.50;;;;;;;14.31;58.35;101483.03;107054;1267;25360;-55
2023/04/18 00:49:29;;;;;;;5.20;3.00;;;;;;;14.31;58.44;101479.52;107152;1267;25331;-55
2023/04/18 00:51:57;;;;;;;7.50;4.00;;;;;;;14.32;58.43;101475.50;107028;1267;25392;-54
2023/04/18 00:54:26;;;;;;;5.70;3.40;;;;;;;14.30;58.32;101470.64;106929;1273;25325;-54
2023/04/18 00:56:54;;;;;;;7.20;3.60;;;;;;;14.27;58.36;101461.98;107068;1266;22524;-54
2023/04/18 00:59:23;;;;;;;7.10;3.70;;;;;;;14.21;58.65;101457.96;106844;1272;25366;-54
2023/04/18 01:01:51;;;;;;;5.20;3.00;;;;;;;14.19;58.64;101456.78;106817;1270;23884;-54
2023/04/18 01:04:21;;;;;;;7.50;3.60;;;;;;;14.19;58.73;101452.60;107236;1267;25422;-55
2023/04/18 01:06:50;;;;;;;5.30;2.90;;;;;;;14.15;58.90;101452.35;106987;1269;22536;-54
2023/04/18 01:09:18;;;;;;;5.90;3.50;;;;;;;14.11;59.03;101451.05;106757;1273;25615;-55
2023/04/18 01:11:47;;;;;;;5.30;2.90;;;;;;;14.08;59.16;101454.09;107026;1270;22521;-54
2023/04/18 01:14:17;;;;;;;6.50;3.30;;;;;;;14.08;59.25;101451.65;106875;1267;25359;-54
2023/04/18 01:16:47;;;;;;;6.10;3.50;;;;;;;14.07;59.39;101446.98;106818;1267;22635;-54
2023/04/18 01:19:18;;;;;;;6.80;4.00;;;;;;;14.08;59.55;101452.36;106785;1267;25366;-55
2023/04/18 01:21:47;;;;;;;4.90;3.30;;;;;;;14.11;59.64;101454.55;106979;1273;25482;-55
2023/04/18 01:24:16;;;;;;;5.40;3.40;;;;;;;14.14;59.50;101447.84;107124;1271;22816;-54
2023/04/18 01:26:48;;;;;;;11.10;3.60;;;;;;;14.17;59.53;101444.61;106866;1270;22531;-54
2023/04/18 01:29:16;;;;;;;7.30;3.40;;;;;;;14.16;59.52;101437.13;106764;1263;25334;-54
2023/04/18 01:31:45;;;;;;;4.50;3.20;;;;;;;14.14;59.49;101430.23;107142;1267;25422;-54
2023/04/18 01:34:18;;;;;;;4.70;3.30;;;;;;;14.11;59.51;101428.02;106857;1270;24327;-54
2023/04/18 01:36:47;;;;;;;;;;;;;;;14.08;59.68;101428.44;106939;1270;25337;-54
2023/04/18 01:39:17;;;;;;;6.50;3.60;;;;;;;14.08;59.72;101426.70;107138;1270;22534;-54
2023/04/18 01:41:45;;;;;;;4.00;3.10;;;;;;;14.08;59.78;101426.88;107153;1267;25360;-54
2023/04/18 01:44:14;;;;;;;6.90;3.20;;;;;;;14.08;59.74;101422.88;107042;1269;24217;-54
2023/04/18 01:46:46;;;;;;;5.00;3.20;;;;;;;14.07;59.69;101427.27;106840;1267;23874;-55
2023/04/18 01:49:15;;;;;;;3.00;2.70;;;;;;;14.06;59.73;101430.95;106980;1273;24334;-54
2023/04/18 01:51:43;;;;;;;5.10;3.60;;;;;;;14.04;59.46;101428.90;106981;1267;22588;-54
2023/04/18 01:54:11;;;;;;;6.70;3.40;;;;;;;14.03;59.31;101431.36;107104;1267;22823;-53
2023/04/18 01:56:40;;;;;;;9.80;3.80;;;;;;;14.03;59.14;101433.29;107129;1267;25265;-54
2023/04/18 01:59:08;;;;;;;7.00;3.50;;;;;;;14.04;59.05;101433.97;107129;1266;22612;-55
2023/04/18 02:01:37;;;;;;;11.60;3.70;;;;;;;14.08;59.02;101430.89;107059;1267;25423;-54
2023/04/18 02:04:05;;;;;;;5.70;3.00;;;;;;;14.07;58.59;101428.65;106979;1267;25343;-54
2023/04/18 02:06:34;;;;;;;5.70;3.50;;;;;;;14.06;58.33;101427.64;106821;1267;22517;-54
2023/04/18 02:09:03;;;;;;;7.50;3.40;;;;;;;14.06;58.16;101423.63;107074;1251;22529;-54
2023/04/18 02:11:32;;;;;;;6.80;3.60;;;;;;;14.09;57.99;101419.71;106838;1270;25354;-54
2023/04/18 02:14:03;;;;;;;4.50;3.40;;;;;;;14.11;58.28;101417.05;107113;1267;25331;-54
2023/04/18 02:16:33;;;;;;;8.90;4.20;;;;;;;14.11;58.54;101425.39;107080;1267;25353;-54
2023/04/18 02:19:03;;;;;;;8.30;4.00;;;;;;;14.12;58.79;101426.09;107014;1267;25408;-54
2023/04/18 02:21:32;;;;;;;8.60;3.50;;;;;;;14.08;59.06;101431.05;106856;1274;25294;-54
2023/04/18 02:24:00;;;;;;;9.60;4.40;;;;;;;14.10;59.25;101433.63;107062;1270;24269;-54
2023/04/18 02:26:29;;;;;;;6.90;3.80;;;;;;;14.11;59.44;101442.85;106975;1267;25345;-54
2023/04/18 02:28:57;;;;;;;5.00;3.30;;;;;;;14.13;59.51;101444.36;107056;1267;25322;-54
2023/04/18 02:31:26;;;;;;;7.70;3.30;;;;;;;14.14;59.29;101446.10;107030;1267;25358;-54
2023/04/18 02:33:54;;;;;;;8.10;3.30;;;;;;;14.11;59.23;101441.98;107106;1267;22783;-55
2023/04/18 02:36:24;;;;;;;10.50;4.30;;;;;;;14.10;59.49;101439.56;106849;1270;22613;-54
2023/04/18 02:38:53;;;;;;;5.80;3.50;;;;;;;14.07;60.00;101436.85;107051;1267;25428;-54
2023/04/18 02:41:22;;;;;;;7.30;4.00;;;;;;;14.05;60.45;101428.02;106803;1270;25355;-55
2023/04/18 02:43:50;;;;;;;8.20;3.90;;;;;;;14.02;60.71;101433.84;107096;1267;24237;-54
2023/04/18 02:46:20;;;;;;;6.70;3.50;;;;;;;13.98;60.94;101434.13;107083;1267;22626;-54
2023/04/18 02:48:48;;;;;;;5.90;3.80;;;;;;;13.95;61.24;101430.88;107018;1267;22670;-54
2023/04/18 02:51:18;;;;;;;6.10;3.60;;;;;;;13.90;61.33;101431.34;107067;1267;22622;-54
2023/04/18 02:53:47;;;;;;;8.40;3.80;;;;;;;13.87;61.41;101439.43;107062;1267;25331;-54
2023/04/18 02:56:16;;;;;;;5.10;2.90;;;;;;;13.86;60.95;101439.10;107042;1260;25355;-53
2023/04/18 02:59:05;;;;;;;6.30;3.30;;;;;;;13.83;60.42;101432.56;107027;1256;25359;-54
2023/04/18 03:02:13;;;;;;;6.00;2.90;;;;;;;13.78;60.33;101428.84;106620;1272;25339;-56
2023/04/18 03:04:47;;;;;;;9.40;3.20;;;;;;;13.75;60.35;101431.88;106604;1273;25348;-54
2023/04/18 03:07:16;;;;;;;7.50;3.10;;;;;;;13.73;60.33;101433.86;106690;1270;25498;-54
2023/04/18 03:09:44;;;;;;;8.70;3.60;;;;;;;13.72;60.37;101431.08;107071;1267;25401;-54
2023/04/18 03:12:27;;;;;;;5.60;3.20;;;;;;;13.75;60.29;101423.34;107044;1267;25412;-54
2023/04/18 03:14:55;;;;;;;8.60;3.60;;;;;;;13.76;60.17;101416.88;107082;1267;22573;-53
2023/04/18 03:17:23;;;;;;;5.40;3.50;;;;;;;13.73;60.10;101413.81;106858;1268;27238;-54
2023/04/18 03:19:52;;;;;;;7.90;3.10;;;;;;;13.70;60.00;101417.89;107035;1270;25459;-54
2023/04/18 03:22:21;;;;;;;7.80;3.50;;;;;;;13.68;59.96;101418.81;107035;1267;24253;-53
2023/04/18 03:24:59;;;;;;;6.20;3.30;;;;;;;13.65;60.01;101420.61;107071;1267;25369;-54
2023/04/18 03:27:41;;;;;;;7.30;3.60;;;;;;;13.65;60.27;101425.33;107038;1251;25314;-55
2023/04/18 03:30:11;;;;;;;7.00;3.40;;;;;;;13.65;60.34;101425.69;107030;1268;24259;-54
2023/04/18 03:32:40;;;;;;;9.30;3.90;;;;;;;13.67;60.33;101428.61;107076;1267;22530;-54
2023/04/18 03:35:10;;;;;;;7.20;3.30;;;;;;;13.68;60.34;101428.57;107029;1267;24207;-53
2023/04/18 03:37:38;;;;;;;8.50;3.80;;;;;;;13.71;60.40;101433.03;106921;1268;24321;-53
2023/04/18 03:40:08;;;;;;;9.00;3.90;;;;;;;13.73;60.35;101434.71;107033;1269;25420;-54
2023/04/18 03:42:36;;;;;;;9.00;4.20;;;;;;;13.77;60.37;101433.92;107039;1268;25611;-54
2023/04/18 03:45:05;;;;;;;6.00;4.50;;;;;;;13.79;60.36;101438.06;107050;1267;25563;-54
2023/04/18 03:47:34;;;;;;;7.50;4.30;;;;;;;13.82;60.32;101440.08;107021;1267;25055;-54
2023/04/18 03:50:04;;;;;;;6.00;3.70;;;;;;;13.84;60.28;101435.84;107016;1268;25342;-54
2023/04/18 03:52:32;;;;;;;5.80;3.70;;;;;;;13.87;60.36;101441.35;106826;1267;24087;-54
2023/04/18 03:55:02;;;;;;;7.20;3.90;;;;;;;13.89;60.51;101442.19;107066;1267;26509;-55
2023/04/18 03:57:32;;;;;;;5.70;4.00;;;;;;;13.92;60.42;101440.38;107002;1267;25240;-54
2023/04/18 04:00:04;;;;;;;7.10;3.90;;;;;;;13.92;60.34;101439.83;106832;1271;435747;-54
2023/04/18 04:02:42;;;;;;;6.10;4.30;;;;;;;13.92;60.37;101433.56;107072;1269;24215;-54
2023/04/18 04:05:16;;;;;;;6.60;4.20;;;;;;;13.92;60.39;101426.77;107083;1272;25472;-54
2023/04/18 04:07:45;;;;;;;6.70;3.70;;;;;;;13.92;60.55;101427.11;107165;1271;25350;-54
2023/04/18 04:10:14;;;;;;;7.80;4.00;;;;;;;13.92;60.62;101421.01;107107;1257;22661;-55
2023/04/18 04:12:43;;;;;;;4.10;3.70;;;;;;;13.92;60.69;101420.65;106926;1268;25364;-54
2023/04/18 04:15:11;;;;;;;6.10;4.20;;;;;;;13.91;60.56;101423.28;107048;1267;25370;-54
2023/04/18 04:17:45;;;;;;;7.70;4.40;;;;;;;13.90;60.61;101421.92;106857;1269;25402;-54
2023/04/18 04:20:15;;;;;;;9.30;5.30;;;;;;;13.91;60.83;101426.45;107000;1253;25345;-54
2023/04/18 04:22:44;;;;;;;5.50;3.90;;;;;;;13.91;60.84;101423.98;107050;1267;25352;-54
2023/04/18 04:25:16;;;;;;;6.40;4.20;;;;;;;13.92;61.00;101424.30;107185;1267;24195;-55
2023/04/18 04:27:44;;;;;;;7.30;5.20;;;;;;;13.95;61.17;101429.11;107099;1267;22538;-54
2023/04/18 04:30:13;;;;;;;6.20;4.30;;;;;;;14.00;61.17;101432.16;107062;1267;22571;-54
2023/04/18 04:32:43;;;;;;;5.10;4.20;;;;;;;14.03;61.19;101433.80;107026;1267;25540;-54
2023/04/18 04:35:12;;;;;;;4.60;3.60;;;;;;;14.07;61.04;101436.67;104040;1269;1003581;-54
2023/04/18 04:37:42;;;;;;;9.20;4.20;;;;;;;14.11;60.95;101434.48;106954;1269;25311;-54
2023/04/18 04:40:18;;;;;;;5.10;3.60;;;;;;;14.14;60.73;101432.47;106834;1269;22534;-54
2023/04/18 04:42:52;;;;;;;6.90;4.20;;;;;;;14.17;60.58;101427.34;107036;1251;25334;-54
2023/04/18 04:45:30;;;;;;;6.00;3.70;;;;;;;14.20;60.57;101422.89;106855;1270;25362;-54
2023/04/18 04:47:58;;;;;;;4.90;3.70;;;;;;;14.24;60.42;101422.08;107056;1267;22519;-54
2023/04/18 04:50:27;;;;;;;4.70;3.60;;;;;;;14.28;60.37;101425.33;107029;1267;25239;-54
2023/04/18 04:52:55;;;;;;;5.10;3.30;;;;;;;14.31;60.50;101426.81;107094;1267;25418;-54
2023/04/18 04:55:24;;;;;;;6.50;3.40;;;;;;;14.36;60.42;101427.73;106852;1257;25334;-54
2023/04/18 04:57:56;;;;;;;6.70;4.10;;;;;;;14.38;60.37;101424.38;106828;1269;22583;-54
2023/04/18 05:00:42;;;;;;;6.00;3.20;;;;;;;14.41;60.23;101421.83;107040;1267;25330;-55
2023/04/18 05:03:11;;;;;;;4.80;3.20;;;;;;;14.42;60.25;101425.31;107025;1267;22590;-54
2023/04/18 05:05:40;;;;;;;5.40;3.40;;;;;;;14.43;60.35;101429.31;107000;1267;24373;-54
2023/04/18 05:08:08;;;;;;;4.60;3.40;;;;;;;14.44;60.50;101431.88;107118;1267;25350;-54
2023/04/18 05:10:37;;;;;;;4.50;3.80;;;;;;;14.46;60.53;101434.45;107103;1267;22527;-54
2023/04/18 05:13:05;;;;;;;4.90;3.50;;;;;;;14.47;60.46;101432.16;107015;1267;25319;-55
2023/04/18 05:15:33;;;;;;;6.90;3.60;;;;;;;14.49;60.46;101432.27;107127;1267;23209;-54
2023/04/18 05:18:02;;;;;;;6.80;3.40;;;;;;;14.51;60.48;101430.66;106920;1270;25335;-55
2023/04/18 05:20:31;;;;;;;5.70;3.50;;;;;;;14.52;60.52;101430.43;105657;1270;1003309;-54
2023/04/18 05:22:59;;;;;;;6.80;3.30;;;;;;;14.55;60.65;101436.48;107070;1267;25398;-54
2023/04/18 05:25:28;;;;;;;5.30;3.20;;;;;;;14.60;60.52;101430.92;107010;1267;22641;-54
2023/04/18 05:27:59;;;;;;;13.60;3.40;;;;;;;14.64;60.47;101430.09;107068;1253;24228;-55
2023/04/18 05:30:27;;;;;;;5.30;2.80;;;;;;;14.70;60.40;101426.29;107007;1272;23891;-53
2023/04/18 05:32:55;;;;;;;5.60;3.00;;;;;;;14.75;60.26;101428.94;107043;1253;24275;-53
2023/04/18 05:35:24;;;;;;;4.90;2.80;;;;;;;14.82;60.10;101429.96;106807;1254;26763;-53
2023/04/18 05:37:53;;;;;;;6.20;2.80;;;;;;;14.88;59.97;101432.41;106928;1268;25519;-54
2023/04/18 05:40:21;;;;;;;7.10;2.90;;;;;;;15.00;59.72;101439.21;106970;1268;22622;-54
2023/04/18 05:42:49;;;;;;;5.70;3.40;;;;;;;15.13;59.49;101443.19;107015;1267;25394;-54
2023/04/18 05:45:18;;;;;;;4.60;2.60;;;;;;;15.30;59.22;101447.06;107169;1267;25442;-54
2023/04/18 05:47:46;;;;;;;6.30;2.80;;;;;;;15.48;59.25;101449.84;106905;1269;25418;-54
2023/04/18 05:50:15;;;;;;;5.40;2.20;;;;;;;15.69;59.14;101451.63;107042;1268;25380;-54
2023/04/18 05:52:44;;;;;;;4.30;2.70;;;;;;;15.94;59.34;101448.36;106992;1267;25334;-53
2023/04/18 05:55:12;;;;;;;4.90;2.40;;;;;;;16.30;58.84;101445.41;107034;1267;25409;-53
2023/04/18 05:57:41;;;;;;;5.10;2.20;;;;;;;16.71;57.84;101446.95;106848;1267;25331;-54
2023/04/18 06:00:10;;;;;;;5.90;2.10;;;;;;;17.13;56.79;101444.16;106727;1273;25788;-54
2023/04/18 06:02:42;;;;;;;10.40;3.00;;;;;;;17.58;55.70;101444.68;105578;1268;1003743;-54
2023/04/18 06:05:11;;;;;;;4.40;2.00;;;;;;;18.16;54.68;101452.13;107022;1268;22636;-54
2023/04/18 06:07:40;;;;;;;7.30;2.60;;;;;;;18.65;52.90;101459.70;107071;1267;22540;-54
2023/04/18 06:10:12;;;;;;;7.90;2.60;;;;;;;18.96;51.80;101464.09;106902;1271;22523;-54
2023/04/18 06:12:41;;;;;;;8.00;2.10;;;;;;;19.25;51.29;101466.27;107016;1267;22524;-54
2023/04/18 06:15:10;;;;;;;4.80;2.40;;;;;;;19.56;50.68;101468.88;107129;1252;25342;-54
2023/04/18 06:17:39;;;;;;;6.00;2.40;;;;;;;19.85;49.63;101467.98;106786;1268;22531;-54
2023/04/18 06:20:08;;;;;;;5.30;2.30;;;;;;;20.17;48.97;101471.16;107041;1268;22527;-53
2023/04/18 06:22:37;;;;;;;5.30;2.30;;;;;;;20.55;47.98;101475.41;106885;1268;24269;-54
2023/04/18 06:25:08;;;;;;;6.60;2.00;;;;;;;20.80;47.03;101475.29;106805;1270;22519;-54
2023/04/18 06:27:37;;;;;;;5.70;2.60;;;;;;;20.86;46.29;101476.38;106792;1270;25482;-54
2023/04/18 06:30:07;;;;;;;7.30;2.50;;;;;;;20.84;46.16;101480.89;107071;1267;22546;-53
2023/04/18 06:32:35;;;;;;;4.70;2.50;;;;;;;20.88;45.77;101481.94;107086;1267;24379;-55
2023/04/18 06:35:04;;;;;;;4.60;2.20;;;;;;;20.97;45.87;101484.64;106972;1271;25440;-54
2023/04/18 06:37:32;;;;;;;6.50;2.20;;;;;;;21.13;45.76;101483.65;106887;1269;22527;-54
2023/04/18 06:40:01;;;;;;;6.70;2.40;;;;;;;21.27;44.99;101484.44;107043;1267;25345;-54
2023/04/18 06:42:30;;;;;;;8.30;2.60;;;;;;;21.33;44.24;101485.17;107063;1267;25392;-54
2023/04/18 06:44:58;;;;;;;6.70;2.20;;;;;;;21.28;43.98;101482.83;107075;1268;25422;-54
2023/04/18 06:47:27;;;;;;;9.40;2.30;;;;;;;21.25;44.45;101484.40;107048;1268;25415;-53
2023/04/18 06:49:55;;;;;;;6.30;2.40;;;;;;;21.35;44.47;101489.83;106881;1256;22999;-53
2023/04/18 06:52:24;;;;;;;8.20;2.40;;;;;;;21.45;43.89;101487.00;106993;1267;25353;-53
2023/04/18 06:54:52;;;;;;;11.00;2.70;;;;;;;21.45;43.85;101492.62;107036;1267;25416;-54
2023/04/18 06:57:21;;;;;;;4.10;2.20;;;;;;;21.41;44.06;101491.94;107107;1267;22516;-54
2023/04/18 06:59:49;;;;;;;9.40;2.30;;;;;;;21.39;43.92;101487.69;107019;1271;25377;-52
2023/04/18 07:02:17;;;;;;;4.00;1.90;;;;;;;21.30;43.70;101487.12;107157;1267;22528;-54
2023/04/18 07:04:46;;;;;;;5.80;2.20;;;;;;;21.15;43.82;101486.48;107161;1264;25523;-54
2023/04/18 07:07:15;;;;;;;5.10;2.20;;;;;;;21.05;44.24;101488.43;107011;1267;25359;-54
2023/04/18 07:09:43;;;;;;;5.20;2.00;;;;;;;21.06;44.42;101486.48;107089;1268;25451;-54
2023/04/18 07:12:12;;;;;;;7.90;2.30;;;;;;;21.04;44.36;101490.23;107085;1267;24252;-54
2023/04/18 07:14:41;;;;;;;7.10;2.30;;;;;;;21.07;44.22;101490.46;107099;1267;24314;-54
2023/04/18 07:17:10;;;;;;;6.60;2.10;;;;;;;21.10;44.02;101493.15;106895;1267;25342;-54
2023/04/18 07:19:40;;;;;;;9.90;2.60;;;;;;;21.07;43.97;101495.24;107009;1267;25403;-54
2023/04/18 07:22:08;;;;;;;5.10;2.10;;;;;;;21.05;43.86;101493.92;107118;1267;24272;-54
2023/04/18 07:24:38;;;;;;;6.80;2.60;;;;;;;21.07;44.11;101490.79;107051;1267;25463;-54
2023/04/18 07:27:08;;;;;;;5.30;2.00;;;;;;;21.14;43.47;101491.90;106859;1267;22553;-54
2023/04/18 07:29:36;;;;;;;8.10;2.50;;;;;;;21.12;43.58;101491.48;107069;1267;22522;-54
2023/04/18 07:32:05;;;;;;;7.00;2.60;;;;;;;21.11;43.74;101496.61;107070;1267;24549;-54
2023/04/18 07:34:36;;;;;;;10.70;2.90;;;;;;;21.04;43.96;101499.09;106899;1267;26497;-55
2023/04/18 07:37:04;;;;;;;8.30;2.00;;;;;;;20.91;43.98;101494.60;106970;1269;23865;-54
2023/04/18 07:39:35;;;;;;;5.30;1.90;;;;;;;20.69;43.63;101498.63;107024;1267;24359;-54
2023/04/18 07:42:03;;;;;;;5.50;2.50;;;;;;;20.45;44.41;101497.45;107030;1268;25284;-54
2023/04/18 07:44:33;;;;;;;7.60;2.80;;;;;;;20.22;45.18;101486.95;107032;1267;25408;-54
2023/04/18 07:47:02;;;;;;;9.60;3.00;;;;;;;19.95;45.21;101487.60;107124;1268;22636;-54
2023/04/18 07:49:31;;;;;;;8.60;2.20;;;;;;;19.68;45.60;101495.45;107103;1268;25373;-54
2023/04/18 07:51:59;;;;;;;9.40;3.40;;;;;;;19.43;46.08;101495.38;107086;1269;26497;-54
2023/04/18 07:54:28;;;;;;;10.10;2.50;;;;;;;19.18;47.02;101497.21;107132;1268;25383;-54
2023/04/18 07:56:58;;;;;;;7.90;2.60;;;;;;;19.02;47.68;101500.73;107108;1256;25460;-54
2023/04/18 07:59:27;;;;;;;10.60;2.70;;;;;;;18.92;47.98;101497.69;107004;1271;22558;-54
2023/04/18 08:01:56;;;;;;;6.20;2.20;;;;;;;18.85;48.59;101495.89;106814;1267;25307;-54
2023/04/18 08:04:24;;;;;;;4.60;2.20;;;;;;;18.82;48.50;101496.02;107036;1268;25550;-54
2023/04/18 08:06:56;;;;;;;6.20;2.40;;;;;;;18.74;48.60;101492.89;107047;1267;22524;-53
2023/04/18 08:09:25;;;;;;;4.90;1.90;;;;;;;18.64;48.91;101497.52;107052;1268;25543;-54
2023/04/18 08:11:55;;;;;;;11.80;2.80;;;;;;;18.57;49.28;101503.28;106975;1267;25358;-54
2023/04/18 08:14:24;;;;;;;8.60;2.60;;;;;;;18.52;48.91;101510.00;107061;1267;22520;-53
2023/04/18 08:16:52;;;;;;;10.60;2.70;;;;;;;18.46;49.04;101508.85;107055;1267;22564;-54
2023/04/18 08:19:21;;;;;;;6.80;2.70;;;;;;;18.31;49.38;101505.98;106952;1269;25416;-53
2023/04/18 08:21:50;;;;;;;5.30;2.10;;;;;;;18.24;49.34;101506.08;107032;1268;26612;-53
2023/04/18 08:24:18;;;;;;;5.50;2.30;;;;;;;18.11;49.74;101501.70;107028;1268;25383;-53
2023/04/18 08:26:46;;;;;;;7.10;2.40;;;;;;;17.99;49.95;101495.69;107014;1268;25334;-53
2023/04/18 08:29:15;;;;;;;9.50;2.90;;;;;;;17.90;50.07;101501.86;107072;1252;26751;-53
2023/04/18 08:31:43;;;;;;;7.30;2.80;;;;;;;17.79;50.14;101508.60;107109;1268;25360;-53
2023/04/18 08:34:12;;;;;;;11.50;2.60;;;;;;;17.70;50.33;101511.42;107087;1267;25512;-53
2023/04/18 08:36:41;;;;;;;6.30;2.20;;;;;;;17.61;50.94;101510.53;106906;1267;25345;-53
2023/04/18 08:39:09;;;;;;;6.30;2.60;;;;;;;17.61;51.08;101510.55;107021;1271;24299;-53
2023/04/18 08:41:38;;;;;;;5.40;2.30;;;;;;;17.62;51.27;101513.50;107094;1267;24212;-54
2023/04/18 08:44:07;;;;;;;9.50;2.40;;;;;;;17.61;51.30;101520.16;106993;1269;25442;-54
2023/04/18 08:46:36;;;;;;;8.10;2.40;;;;;;;17.58;51.72;101519.60;107083;1267;26729;-53
2023/04/18 08:49:05;;;;;;;8.00;2.60;;;;;;;17.63;51.84;101522.39;106981;1272;25345;-53
2023/04/18 08:51:35;;;;;;;5.10;2.20;;;;;;;17.70;51.51;101525.27;107040;1267;22721;-54
2023/04/18 08:54:05;;;;;;;9.70;2.60;;;;;;;17.74;51.29;101530.55;106808;1269;22548;-54
2023/04/18 08:56:36;;;;;;;9.80;2.80;;;;;;;17.73;51.10;101529.01;106932;1271;22526;-54
2023/04/18 08:59:04;;;;;;;7.50;2.40;;;;;;;17.70;51.25;101527.38;106896;1269;25515;-54
2023/04/18 09:01:57;;;;;;;7.10;2.30;;;;;;;17.68;51.46;101527.95;107106;1268;25323;-54
2023/04/18 09:04:36;;;;;;;;;;;;;;;17.66;51.26;101527.16;107056;1268;24286;-54
2023/04/18 09:07:06;;;;;;;7.50;2.40;;;;;;;17.59;51.32;101530.80;107090;1267;25357;-54
2023/04/18 09:09:45;;;;;;;9.40;2.80;;;;;;;17.43;51.60;101528.39;107038;1268;24385;-54
2023/04/18 09:12:21;;;;;;;7.30;2.50;;;;;;;17.32;52.23;101530.39;107150;1268;25329;-54
2023/04/18 09:14:55;;;;;;;7.20;2.60;;;;;;;17.28;52.34;101531.78;107159;1267;25348;-54
2023/04/18 09:17:34;;;;;;;10.00;3.40;;;;;;;17.27;52.71;101534.10;107018;1271;25405;-54
2023/04/18 09:20:08;;;;;;;12.20;3.00;;;;;;;17.29;53.07;101534.02;107183;1267;22523;-54
2023/04/18 09:22:53;;;;;;;6.40;2.40;;;;;;;17.32;53.39;101533.38;107043;1267;25519;-54
2023/04/18 09:25:28;;;;;;;9.10;3.10;;;;;;;17.41;53.64;101533.73;107092;1252;25268;-54
2023/04/18 09:27:59;;;;;;;6.30;3.10;;;;;;;17.50;52.86;101530.95;107120;1267;24186;-54
2023/04/18 09:30:36;;;;;;;4.80;2.30;;;;;;;17.59;52.56;101525.35;106991;1267;22549;-54
2023/04/18 09:33:08;;;;;;;9.50;2.50;;;;;;;17.60;52.55;101524.27;106776;1267;25281;-54
2023/04/18 09:35:37;;;;;;;9.20;2.70;;;;;;;17.61;52.56;101524.73;106796;1267;22538;-54
2023/04/18 09:38:06;;;;;;;13.00;3.20;;;;;;;17.81;52.25;101521.50;107081;1267;23864;-54
2023/04/18 09:40:34;;;;;;;11.50;3.30;;;;;;;17.92;52.08;101521.45;107057;1269;25364;-54
2023/04/18 09:43:17;;;;;;;10.10;3.00;;;;;;;17.99;52.33;101523.61;107018;1269;25415;-54
2023/04/18 09:45:47;;;;;;;11.70;2.30;;;;;;;18.09;52.14;101523.57;107115;1271;25377;-54
2023/04/18 09:48:15;;;;;;;12.70;2.60;;;;;;;18.15;51.62;101514.52;107121;1268;22654;-54
2023/04/18 09:50:44;;;;;;;7.60;2.70;;;;;;;18.16;50.83;101507.96;107021;1269;25393;-54
2023/04/18 09:53:13;;;;;;;8.60;3.40;;;;;;;18.14;51.00;101506.84;107156;1267;24216;-54
2023/04/18 09:55:42;;;;;;;11.50;2.70;;;;;;;18.13;51.27;101513.02;106819;1267;24270;-54
2023/04/18 09:58:11;;;;;;;8.80;3.00;;;;;;;18.17;51.37;101512.17;105426;1267;1003056;-55
2023/04/18 10:00:39;;;;;;;14.20;3.30;;;;;;;18.19;51.14;101514.16;106914;1271;23872;-54
2023/04/18 10:03:08;;;;;;;11.50;3.00;;;;;;;18.19;51.30;101518.03;107006;1268;25444;-54
2023/04/18 10:05:38;;;;;;;10.50;3.10;;;;;;;18.23;50.72;101514.71;107075;1267;22525;-54
2023/04/18 10:08:07;;;;;;;13.30;3.40;;;;;;;18.24;50.54;101514.31;107055;1268;22541;-54
2023/04/18 10:10:36;;;;;;;11.10;2.80;;;;;;;18.24;50.62;101508.52;106829;1269;25373;-53
2023/04/18 10:13:07;;;;;;;11.80;2.60;;;;;;;18.28;50.72;101510.13;106761;1266;22535;-53
2023/04/18 10:15:36;;;;;;;16.90;3.00;;;;;;;18.31;50.55;101516.13;107050;1269;24275;-53
2023/04/18 10:18:09;;;;;;;11.10;3.20;;;;;;;18.36;50.64;101514.87;107048;1267;22530;-54
2023/04/18 10:20:37;;;;;;;11.70;3.20;;;;;;;18.41;50.04;101526.23;106836;1257;25364;-54
2023/04/18 10:23:33;;;;;;;13.00;3.90;;;;;;;18.45;49.96;101524.52;106851;1271;25386;-54
2023/04/18 10:26:03;;;;;;;13.30;3.40;;;;;;;18.49;49.75;101522.42;106975;1271;24442;-53
2023/04/18 10:28:51;;;;;;;15.80;2.40;;;;;;;18.53;49.81;101515.92;107085;1269;22657;-54
2023/04/18 10:31:22;;;;;;;12.80;3.90;;;;;;;18.57;49.69;101518.73;107198;1260;22542;-53
2023/04/18 10:33:54;;;;;;;8.20;2.70;;;;;;;18.55;49.47;101522.69;107095;1268;24353;-53
2023/04/18 10:36:33;;;;;;;12.20;2.90;;;;;;;18.51;50.02;101518.84;107089;1268;25515;-53
2023/04/18 10:39:20;;;;;;;11.90;2.90;;;;;;;18.50;49.82;101525.54;107105;1268;24372;-53
2023/04/18 10:41:49;;;;;;;12.70;4.00;;;;;;;18.56;49.94;101521.95;106904;1268;22550;-53
2023/04/18 10:44:20;;;;;;;8.20;2.80;;;;;;;18.61;49.80;101526.98;107120;1268;22529;-54
2023/04/18 10:46:52;;;;;;;12.10;2.70;;;;;;;18.67;49.62;101524.29;107097;1267;22573;-54
2023/04/18 10:49:21;;;;;;;9.60;2.70;;;;;;;18.67;49.21;101513.36;107074;1272;24079;-54
2023/04/18 10:51:54;;;;;;;10.40;3.40;;;;;;;18.65;49.56;101508.17;107093;1267;25518;-54
2023/04/18 10:54:38;;;;;;;14.80;3.40;;;;;;;18.65;49.45;101507.34;107087;1268;25380;-54
2023/04/18 10:57:07;;;;;;;11.10;3.40;;;;;;;18.65;49.28;101512.92;107179;1266;25321;-54
2023/04/18 10:59:38;;;;;;;10.80;3.10;;;;;;;18.68;49.23;101509.98;107092;1268;25447;-54
2023/04/18 11:02:22;;;;;;;9.50;3.10;;;;;;;18.72;49.28;101514.94;107024;1267;22619;-53
2023/04/18 11:04:52;;;;;;;10.40;2.50;;;;;;;18.73;48.93;101512.60;106963;1269;22650;-54
2023/04/18 11:07:44;;;;;;;10.30;2.40;;;;;;;18.74;49.12;101514.69;106918;1269;23912;-54
2023/04/18 11:10:25;;;;;;;9.40;3.30;;;;;;;18.75;48.35;101511.46;106848;1267;25437;-55
2023/04/18 11:12:54;;;;;;;16.50;3.90;;;;;;;18.74;48.27;101513.95;107033;1266;22674;-55
2023/04/18 11:15:23;;;;;;;8.90;3.30;;;;;;;18.75;48.24;101517.97;106899;1267;22528;-54
2023/04/18 11:18:05;;;;;;;12.50;3.30;;;;;;;18.78;48.42;101514.70;107133;1268;22653;-54
2023/04/18 11:20:37;;;;;;;18.70;3.30;;;;;;;18.83;48.10;101516.75;106996;1268;22527;-53
2023/04/18 11:23:15;;;;;;;11.90;3.00;;;;;;;18.89;47.65;101518.39;106793;1269;22513;-54
2023/04/18 11:25:46;;;;;;;12.80;2.80;;;;;;;18.95;47.43;101516.91;107029;1271;22537;-54
2023/04/18 11:28:20;;;;;;;14.00;3.30;;;;;;;19.00;47.40;101513.69;106918;1273;25498;-53
2023/04/18 11:30:49;;;;;;;11.60;2.90;;;;;;;19.04;46.69;101511.95;107118;1268;22650;-54
2023/04/18 11:33:17;;;;;;;8.50;2.40;;;;;;;19.04;46.72;101509.09;106900;1268;25532;-54